createdAt,value
2022-11-24T00:01:31.980Z,93497.00
2022-11-24T00:04:06.839Z,93499.00
2022-11-24T00:06:36.157Z,93495.00
2022-11-24T00:09:05.304Z,93488.00
2022-11-24T00:11:35.211Z,93495.00
2022-11-24T00:14:03.930Z,93488.00
2022-11-24T00:16:38.799Z,93495.00
2022-11-24T00:19:14.595Z,93492.00
2022-11-24T00:21:43.929Z,93502.00
2022-11-24T00:24:11.684Z,93499.00
2022-11-24T00:26:38.654Z,93495.00
2022-11-24T00:29:09.926Z,93494.00
2022-11-24T00:31:42.720Z,93501.00
2022-11-24T00:34:16.483Z,93504.00
2022-11-24T00:36:43.359Z,93498.00
2022-11-24T00:39:19.756Z,93502.00
2022-11-24T00:41:50.826Z,93497.00
2022-11-24T00:44:17.671Z,93504.00
2022-11-24T00:46:44.629Z,93500.00
2022-11-24T00:49:11.855Z,93506.00
2022-11-24T00:51:38.802Z,93505.00
2022-11-24T00:54:13.628Z,93506.00
2022-11-24T00:56:46.133Z,93509.00
2022-11-24T00:59:15.513Z,93519.00
2022-11-24T01:01:42.701Z,93515.00
2022-11-24T01:04:12.743Z,93527.00
2022-11-24T01:06:39.570Z,93519.00
2022-11-24T01:09:11.380Z,93528.00
2022-11-24T01:11:56.703Z,93521.00
2022-11-24T01:14:27.735Z,93541.00
2022-11-24T01:16:55.070Z,93541.00
2022-11-24T01:19:22.515Z,93548.00
2022-11-24T01:21:49.989Z,93554.00
2022-11-24T01:24:19.459Z,93544.00
2022-11-24T01:26:48.565Z,93540.00
2022-11-24T01:29:17.680Z,93555.00
2022-11-24T01:31:44.517Z,93565.00
2022-11-24T01:34:14.458Z,93557.00
2022-11-24T01:36:42.181Z,93559.00
2022-11-24T01:39:11.548Z,93561.00
2022-11-24T01:41:38.368Z,93562.00
2022-11-24T01:44:28.718Z,93571.00
2022-11-24T01:47:05.028Z,93581.00
2022-11-24T01:49:48.132Z,93578.00
2022-11-24T01:52:22.890Z,93580.00
2022-11-24T01:54:59.417Z,93581.00
2022-11-24T01:57:36.261Z,93571.00
2022-11-24T02:00:11.271Z,93569.00
2022-11-24T02:02:38.476Z,93587.00
2022-11-24T02:05:31.149Z,93585.00
2022-11-24T02:08:01.036Z,93588.00
2022-11-24T02:10:27.903Z,93581.00
2022-11-24T02:12:57.908Z,93590.00
2022-11-24T02:15:25.413Z,93598.00
2022-11-24T02:17:52.320Z,93593.00
2022-11-24T02:20:19.298Z,93591.00
2022-11-24T02:23:25.079Z,93597.00
2022-11-24T02:26:10.229Z,93597.00
2022-11-24T02:28:40.754Z,93598.00
2022-11-24T02:31:07.889Z,93594.00
2022-11-24T02:33:35.709Z,93591.00
2022-11-24T02:36:02.614Z,93591.00
2022-11-24T02:38:37.108Z,93594.00
2022-11-24T02:41:08.992Z,93607.00
2022-11-24T02:43:45.067Z,93597.00
2022-11-24T02:46:14.304Z,93609.00
2022-11-24T02:48:43.745Z,93603.00
2022-11-24T02:51:13.076Z,93609.00
2022-11-24T02:53:39.943Z,93605.00
2022-11-24T02:56:09.426Z,93602.00
2022-11-24T02:58:40.890Z,93600.00
2022-11-24T03:01:07.800Z,93589.00
2022-11-24T03:03:34.931Z,93593.00
2022-11-24T03:06:01.745Z,93586.00
2022-11-24T03:08:33.315Z,93576.00
2022-11-24T03:11:01.694Z,93576.00
2022-11-24T03:13:28.837Z,93578.00
2022-11-24T03:16:00.396Z,93582.00
2022-11-24T03:18:27.154Z,93579.00
2022-11-24T03:21:01.055Z,93571.00
2022-11-24T03:23:27.911Z,93577.00
2022-11-24T03:25:54.982Z,93589.00
2022-11-24T03:28:21.831Z,93596.00
2022-11-24T03:30:53.032Z,93602.00
2022-11-24T03:33:22.168Z,93601.00
2022-11-24T03:35:51.476Z,93596.00
2022-11-24T03:38:18.324Z,93597.00
2022-11-24T03:40:45.184Z,93589.00
2022-11-24T03:43:12.059Z,93589.00
2022-11-24T03:45:46.400Z,93602.00
2022-11-24T03:48:23.434Z,93616.00
2022-11-24T03:51:00.911Z,93625.00
2022-11-24T03:53:31.438Z,93626.00
2022-11-24T03:56:00.855Z,93626.00
2022-11-24T03:58:28.346Z,93616.00
2022-11-24T04:00:56.119Z,93631.00
2022-11-24T04:03:23.665Z,93634.00
2022-11-24T04:05:50.757Z,93631.00
2022-11-24T04:08:17.864Z,93636.00
2022-11-24T04:10:44.973Z,93638.00
2022-11-24T04:13:17.029Z,93639.00
2022-11-24T04:15:49.904Z,93648.00
2022-11-24T04:18:19.344Z,93656.00
2022-11-24T04:20:51.725Z,93670.00
2022-11-24T04:23:19.033Z,93657.00
2022-11-24T04:25:50.447Z,93655.00
2022-11-24T04:28:22.840Z,93655.00
2022-11-24T04:30:49.657Z,93659.00
2022-11-24T04:33:16.499Z,93659.00
2022-11-24T04:35:45.614Z,93664.00
2022-11-24T04:38:12.486Z,93659.00
2022-11-24T04:40:39.334Z,93671.00
2022-11-24T04:43:09.031Z,93669.00
2022-11-24T04:45:40.689Z,93673.00
2022-11-24T04:48:07.523Z,93677.00
2022-11-24T04:50:37.168Z,93673.00
2022-11-24T04:53:04.351Z,93676.00
2022-11-24T04:55:35.815Z,93672.00
2022-11-24T04:58:02.825Z,93674.00
2022-11-24T05:00:32.691Z,93680.00
2022-11-24T05:03:00.791Z,93678.00
2022-11-24T05:05:27.661Z,93684.00
2022-11-24T05:08:00.003Z,93695.00
2022-11-24T05:10:36.471Z,93681.00
2022-11-24T05:13:14.957Z,93688.00
2022-11-24T05:15:45.082Z,93681.00
2022-11-24T05:18:18.986Z,93700.00
2022-11-24T05:20:49.550Z,93681.00
2022-11-24T05:23:17.626Z,93705.00
2022-11-24T05:25:47.633Z,93695.00
2022-11-24T05:28:16.488Z,93696.00
2022-11-24T05:30:43.411Z,93697.00
2022-11-24T05:33:24.180Z,93690.00
2022-11-24T05:35:51.407Z,93694.00
2022-11-24T05:38:22.535Z,93700.00
2022-11-24T05:40:52.036Z,93711.00
2022-11-24T05:43:34.131Z,93705.00
2022-11-24T05:46:04.245Z,93709.00
2022-11-24T05:48:31.147Z,93704.00
2022-11-24T05:51:03.172Z,93706.00
2022-11-24T05:53:33.315Z,93721.00
2022-11-24T05:56:04.539Z,93725.00
2022-11-24T05:58:33.648Z,93728.00
2022-11-24T06:01:08.529Z,93688.00
2022-11-24T06:03:35.408Z,93724.00
2022-11-24T06:06:03.177Z,93717.00
2022-11-24T06:11:36.860Z,93703.00
2022-11-24T06:14:08.231Z,93712.00
2022-11-24T06:16:40.009Z,93716.00
2022-11-24T06:19:14.507Z,93723.00
2022-11-24T06:21:41.408Z,93713.00
2022-11-24T06:24:10.755Z,93722.00
2022-11-24T06:26:39.725Z,93716.00
2022-11-24T06:29:06.923Z,93722.00
2022-11-24T06:31:34.152Z,93722.00
2022-11-24T06:34:01.103Z,93722.00
2022-11-24T06:36:28.234Z,93731.00
2022-11-24T06:38:55.123Z,93730.00
2022-11-24T06:41:26.639Z,93737.00
2022-11-24T06:43:53.495Z,93731.00
2022-11-24T06:46:20.801Z,93724.00
2022-11-24T06:48:54.889Z,93751.00
2022-11-24T06:51:21.766Z,93748.00
2022-11-24T06:53:54.259Z,93750.00
2022-11-24T06:56:23.093Z,93748.00
2022-11-24T06:58:54.789Z,93746.00
2022-11-24T07:01:27.335Z,93750.00
2022-11-24T07:03:55.760Z,93745.00
2022-11-24T07:06:24.696Z,93752.00
2022-11-24T07:08:52.559Z,93752.00
2022-11-24T07:11:23.391Z,93754.00
2022-11-24T07:13:59.920Z,93760.00
2022-11-24T07:16:28.313Z,93750.00
2022-11-24T07:18:56.218Z,93751.00
2022-11-24T07:21:27.961Z,93758.00
2022-11-24T07:23:56.986Z,93759.00
2022-11-24T07:26:25.050Z,93760.00
2022-11-24T07:28:52.181Z,93774.00
2022-11-24T07:31:22.351Z,93780.00
2022-11-24T07:33:54.923Z,93778.00
2022-11-24T07:36:24.984Z,93780.00
2022-11-24T07:38:52.183Z,93776.00
2022-11-24T07:41:20.086Z,93783.00
2022-11-24T07:43:50.560Z,93787.00
2022-11-24T07:46:19.555Z,93781.00
2022-11-24T07:48:47.215Z,93773.00
2022-11-24T07:51:18.895Z,93770.00
2022-11-24T07:53:46.387Z,93765.00
2022-11-24T07:56:13.608Z,93781.00
2022-11-24T07:58:40.606Z,93777.00
2022-11-24T08:01:17.349Z,93788.00
2022-11-24T08:03:45.380Z,93794.00
2022-11-24T08:06:26.181Z,93790.00
2022-11-24T08:08:59.104Z,93789.00
2022-11-24T08:11:26.637Z,93788.00
2022-11-24T08:13:53.868Z,93789.00
2022-11-24T08:16:23.360Z,93781.00
2022-11-24T08:18:53.045Z,93804.00
2022-11-24T08:21:20.078Z,93801.00
2022-11-24T08:23:47.307Z,93804.00
2022-11-24T08:26:19.327Z,93807.00
2022-11-24T08:28:47.985Z,93794.00
2022-11-24T08:31:18.836Z,93802.00
2022-11-24T08:33:48.990Z,93805.00
2022-11-24T08:36:18.550Z,93807.00
2022-11-24T08:39:06.154Z,93804.00
2022-11-24T08:41:35.619Z,93804.00
2022-11-24T08:44:02.501Z,93801.00
2022-11-24T08:46:31.972Z,93810.00
2022-11-24T08:49:01.235Z,93813.00
2022-11-24T08:51:28.465Z,93820.00
2022-11-24T08:54:01.315Z,93829.00
2022-11-24T08:56:33.052Z,93836.00
2022-11-24T08:59:03.253Z,93829.00
2022-11-24T09:01:30.396Z,93821.00
2022-11-24T09:03:57.834Z,93829.00
2022-11-24T09:06:30.885Z,93833.00
2022-11-24T09:08:58.963Z,93849.00
2022-11-24T09:11:27.334Z,93850.00
2022-11-24T09:13:55.078Z,93854.00
2022-11-24T09:16:26.413Z,93850.00
2022-11-24T09:19:16.089Z,93851.00
2022-11-24T09:21:43.019Z,93843.00
2022-11-24T09:24:10.834Z,93836.00
2022-11-24T09:26:44.530Z,93843.00
2022-11-24T09:29:16.417Z,93836.00
2022-11-24T09:31:43.422Z,93836.00
2022-11-24T09:34:15.524Z,93841.00
2022-11-24T09:36:45.287Z,93843.00
2022-11-24T09:39:12.355Z,93829.00
2022-11-24T09:42:14.193Z,93830.00
2022-11-24T09:45:22.794Z,93857.00
2022-11-24T09:48:35.142Z,93845.00
2022-11-24T09:51:04.758Z,93872.00
2022-11-24T09:53:51.928Z,93860.00
2022-11-24T09:56:28.883Z,93869.00
2022-11-24T09:59:18.544Z,93870.00
2022-11-24T10:01:54.448Z,93874.00
2022-11-24T10:04:22.893Z,93885.00
2022-11-24T10:07:21.351Z,93877.00
2022-11-24T10:10:24.779Z,93890.00
2022-11-24T10:13:30.128Z,93890.00
2022-11-24T10:16:19.600Z,93886.00
2022-11-24T10:19:22.025Z,93894.00
2022-11-24T10:22:21.106Z,93894.00
2022-11-24T10:25:12.945Z,93895.00
2022-11-24T10:28:03.559Z,93896.00
2022-11-24T10:30:33.071Z,93893.00
2022-11-24T10:33:23.229Z,93903.00
2022-11-24T10:36:03.576Z,93892.00
2022-11-24T10:38:38.980Z,93903.00
2022-11-24T10:41:48.048Z,93910.00
2022-11-24T10:44:15.520Z,93913.00
2022-11-24T10:46:42.578Z,93909.00
2022-11-24T10:49:24.191Z,93911.00
2022-11-24T10:52:16.060Z,93919.00
2022-11-24T10:55:02.588Z,93921.00
2022-11-24T10:57:30.959Z,93923.00
2022-11-24T10:59:58.023Z,93903.00
2022-11-24T11:02:40.564Z,93915.00
2022-11-24T11:06:05.665Z,93907.00
2022-11-24T11:08:33.023Z,93907.00
2022-11-24T11:11:30.328Z,93919.00
2022-11-24T11:14:03.948Z,93912.00
2022-11-24T11:16:53.849Z,93902.00
2022-11-24T11:20:01.561Z,93904.00
2022-11-24T11:22:38.480Z,93903.00
2022-11-24T11:25:11.591Z,93915.00
2022-11-24T11:27:40.040Z,93905.00
2022-11-24T11:36:15.994Z,93904.00
2022-11-24T11:38:44.564Z,93897.00
2022-11-24T11:41:21.919Z,93901.00
2022-11-24T11:43:58.009Z,93910.00
2022-11-24T11:46:29.057Z,93924.00
2022-11-24T11:48:59.043Z,93910.00
2022-11-24T11:51:42.100Z,93901.00
2022-11-24T11:54:30.996Z,93915.00
2022-11-24T11:57:42.212Z,93914.00
2022-11-24T12:00:19.279Z,93915.00
2022-11-24T12:03:16.537Z,93911.00
2022-11-24T12:06:01.417Z,93913.00
2022-11-24T12:09:11.589Z,93923.00
2022-11-24T12:12:18.827Z,93931.00
2022-11-24T12:15:37.158Z,93927.00
2022-11-24T12:18:59.739Z,93930.00
2022-11-24T12:21:55.025Z,93927.00
2022-11-24T12:24:50.191Z,93923.00
2022-11-24T12:27:47.355Z,93914.00
2022-11-24T12:30:21.588Z,93912.00
2022-11-24T12:33:00.381Z,93912.00
2022-11-24T12:35:52.665Z,93915.00
2022-11-24T12:38:44.948Z,93924.00
2022-11-24T12:41:43.022Z,93925.00
2022-11-24T12:44:55.213Z,93927.00
2022-11-24T12:47:38.735Z,93934.00
2022-11-24T12:53:06.075Z,93935.00
2022-11-24T12:55:36.086Z,93932.00
2022-11-24T12:58:28.726Z,93937.00
2022-11-24T13:01:40.831Z,93945.00
2022-11-24T13:04:35.912Z,93952.00
2022-11-24T13:07:24.617Z,93949.00
2022-11-24T13:10:53.624Z,93944.00
2022-11-24T13:13:18.962Z,93939.00
2022-11-24T13:16:34.801Z,93957.00
2022-11-24T13:18:55.890Z,93949.00
2022-11-24T13:21:59.757Z,93946.00
2022-11-24T13:24:30.905Z,93941.00
2022-11-24T13:27:16.383Z,93950.00
2022-11-24T13:29:53.599Z,93946.00
2022-11-24T13:32:23.034Z,93958.00
2022-11-24T13:34:57.352Z,93956.00
2022-11-24T13:37:34.508Z,93958.00
2022-11-24T13:40:11.762Z,93958.00
2022-11-24T13:43:02.529Z,93968.00
2022-11-24T13:45:41.715Z,93966.00
2022-11-24T13:48:21.165Z,93963.00
2022-11-24T13:50:51.822Z,93955.00
2022-11-24T13:53:37.516Z,93953.00
2022-11-24T14:02:46.125Z,93958.00
2022-11-24T14:05:17.743Z,93971.00
2022-11-24T14:07:48.457Z,93960.00
2022-11-24T14:10:38.201Z,93964.00
2022-11-24T14:13:25.939Z,93965.00
2022-11-24T14:16:18.789Z,93967.00
2022-11-24T14:18:56.379Z,93932.00
2022-11-24T14:21:28.533Z,93965.00
2022-11-24T14:24:12.091Z,93968.00
2022-11-24T14:26:40.992Z,93972.00
2022-11-24T14:29:17.274Z,93969.00
2022-11-24T14:31:58.422Z,93973.00
2022-11-24T14:34:31.683Z,93975.00
2022-11-24T14:37:02.029Z,93974.00
2022-11-24T14:39:31.409Z,93980.00
2022-11-24T14:42:05.084Z,93981.00
2022-11-24T14:44:40.372Z,93977.00
2022-11-24T14:47:31.650Z,93970.00
2022-11-24T14:50:16.044Z,93966.00
2022-11-24T14:53:00.748Z,93962.00
2022-11-24T14:55:31.021Z,93974.00
2022-11-24T14:57:59.476Z,93980.00
2022-11-24T15:00:31.743Z,93979.00
2022-11-24T15:03:01.805Z,93977.00
2022-11-24T15:05:58.651Z,93984.00
2022-11-24T15:08:37.489Z,93984.00
2022-11-24T15:11:06.900Z,93982.00
2022-11-24T15:13:38.226Z,93987.00
2022-11-24T15:16:19.326Z,93979.00
2022-11-24T15:19:01.535Z,93975.00
2022-11-24T15:21:39.741Z,93972.00
2022-11-24T15:24:20.335Z,93972.00
2022-11-24T15:26:49.339Z,93981.00
2022-11-24T15:29:16.245Z,93984.00
2022-11-24T15:31:51.011Z,93982.00
2022-11-24T15:34:24.230Z,93985.00
2022-11-24T15:36:53.637Z,93982.00
2022-11-24T15:39:20.481Z,93990.00
2022-11-24T15:41:47.372Z,93989.00
2022-11-24T15:44:17.267Z,93981.00
2022-11-24T15:46:44.257Z,93989.00
2022-11-24T15:49:11.164Z,93983.00
2022-11-24T15:51:43.825Z,93996.00
2022-11-24T15:54:17.779Z,93983.00
2022-11-24T15:56:44.762Z,93982.00
2022-11-24T15:59:20.305Z,93988.00
2022-11-24T16:01:50.809Z,93993.00
2022-11-24T16:04:22.658Z,93990.00
2022-11-24T16:06:51.738Z,93997.00
2022-11-24T16:09:50.694Z,93999.00
2022-11-24T16:12:17.612Z,94000.00
2022-11-24T16:14:44.493Z,94001.00
2022-11-24T16:17:11.398Z,94001.00
2022-11-24T16:19:41.822Z,93996.00
2022-11-24T16:22:09.047Z,93996.00
2022-11-24T16:24:36.469Z,93996.00
2022-11-24T16:27:06.702Z,93998.00
2022-11-24T16:29:38.588Z,94003.00
2022-11-24T16:32:08.368Z,94003.00
2022-11-24T16:34:35.425Z,94011.00
2022-11-24T16:37:04.478Z,94011.00
2022-11-24T16:39:33.408Z,94017.00
2022-11-24T16:42:00.220Z,94017.00
2022-11-24T16:44:27.114Z,94020.00
2022-11-24T16:46:56.944Z,94025.00
2022-11-24T16:49:29.362Z,94015.00
2022-11-24T16:51:58.729Z,94019.00
2022-11-24T16:54:25.818Z,94019.00
2022-11-24T16:56:55.174Z,94006.00
2022-11-24T16:59:24.543Z,94009.00
2022-11-24T17:01:51.592Z,94006.00
2022-11-24T17:04:18.591Z,94009.00
2022-11-24T17:06:45.513Z,94005.00
2022-11-24T17:09:12.445Z,94006.00
2022-11-24T17:11:39.389Z,94007.00
2022-11-24T17:14:10.971Z,94000.00
2022-11-24T17:16:38.248Z,94009.00
2022-11-24T17:19:05.731Z,94015.00
2022-11-24T17:21:35.477Z,94007.00
2022-11-24T17:24:05.872Z,94004.00
2022-11-24T17:26:33.767Z,94006.00
2022-11-24T17:29:00.884Z,94004.00
2022-11-24T17:31:35.791Z,94005.00
2022-11-24T17:34:06.325Z,94006.00
2022-11-24T17:36:37.791Z,94011.00
2022-11-24T17:39:07.587Z,94001.00
2022-11-24T17:41:39.594Z,94007.00
2022-11-24T17:44:08.586Z,94009.00
2022-11-24T17:46:39.088Z,94008.00
2022-11-24T17:49:13.005Z,94003.00
2022-11-24T17:51:41.269Z,94003.00
2022-11-24T17:54:39.116Z,94012.00
2022-11-24T17:57:01.208Z,94002.00
2022-11-24T17:59:28.097Z,94015.00
2022-11-24T18:01:54.974Z,94011.00
2022-11-24T18:04:26.860Z,94005.00
2022-11-24T18:06:58.906Z,94002.00
2022-11-24T18:09:28.055Z,93995.00
2022-11-24T18:11:55.023Z,93996.00
2022-11-24T18:14:21.920Z,93994.00
2022-11-24T18:16:51.335Z,94004.00
2022-11-24T18:19:22.756Z,93996.00
2022-11-24T18:21:52.126Z,93987.00
2022-11-24T18:24:23.910Z,93988.00
2022-11-24T18:26:51.167Z,93984.00
2022-11-24T18:29:18.124Z,93980.00
2022-11-24T18:31:47.310Z,93976.00
2022-11-24T18:34:14.221Z,93986.00
2022-11-24T18:36:41.254Z,93983.00
2022-11-24T18:39:09.956Z,93988.00
2022-11-24T18:41:36.894Z,93995.00
2022-11-24T18:44:07.911Z,93987.00
2022-11-24T18:46:35.305Z,94002.00
2022-11-24T18:49:02.370Z,93995.00
2022-11-24T18:51:30.064Z,93989.00
2022-11-24T18:53:58.230Z,93996.00
2022-11-24T18:56:26.470Z,94005.00
2022-11-24T18:58:55.412Z,94000.00
2022-11-24T19:01:28.373Z,93994.00
2022-11-24T19:03:58.509Z,93996.00
2022-11-24T19:06:32.657Z,94002.00
2022-11-24T19:09:08.369Z,94003.00
2022-11-24T19:11:42.086Z,94005.00
2022-11-24T19:14:17.471Z,94009.00
2022-11-24T19:16:49.750Z,93993.00
2022-11-24T19:19:17.365Z,93994.00
2022-11-24T19:21:44.405Z,93989.00
2022-11-24T19:24:14.331Z,93990.00
2022-11-24T19:26:43.750Z,93995.00
2022-11-24T19:29:10.818Z,93985.00
2022-11-24T19:31:41.214Z,93981.00
2022-11-24T19:34:11.491Z,93990.00
2022-11-24T19:36:40.500Z,94007.00
2022-11-24T19:39:12.219Z,94005.00
2022-11-24T19:41:39.106Z,94000.00
2022-11-24T19:44:06.055Z,93994.00
2022-11-24T19:46:33.514Z,94000.00
2022-11-24T19:49:01.955Z,94002.00
2022-11-24T19:51:38.528Z,94004.00
2022-11-24T19:54:13.248Z,94006.00
2022-11-24T19:56:41.403Z,94001.00
2022-11-24T19:59:13.190Z,94006.00
2022-11-24T20:01:43.252Z,94002.00
2022-11-24T20:04:13.692Z,94002.00
2022-11-24T20:06:45.581Z,94001.00
2022-11-24T20:09:15.936Z,93997.00
2022-11-24T20:11:43.015Z,93989.00
2022-11-24T20:14:19.032Z,94000.00
2022-11-24T20:16:50.953Z,93981.00
2022-11-24T20:19:18.720Z,93988.00
2022-11-24T20:21:47.900Z,94001.00
2022-11-24T20:24:17.468Z,94002.00
2022-11-24T20:26:49.197Z,93999.00
2022-11-24T20:29:19.263Z,93996.00
2022-11-24T20:31:50.062Z,94000.00
2022-11-24T20:34:20.798Z,93999.00
2022-11-24T20:36:48.620Z,94006.00
2022-11-24T20:39:23.902Z,94005.00
2022-11-24T20:41:54.779Z,94001.00
2022-11-24T20:44:22.713Z,94004.00
2022-11-24T20:46:50.129Z,94006.00
2022-11-24T20:49:20.129Z,93991.00
2022-11-24T20:51:47.810Z,93995.00
2022-11-24T20:54:17.829Z,93994.00
2022-11-24T20:56:46.530Z,93995.00
2022-11-24T20:59:21.584Z,94002.00
2022-11-24T21:01:52.535Z,94002.00
2022-11-24T21:04:29.019Z,93998.00
2022-11-24T21:06:56.494Z,93982.00
2022-11-24T21:09:24.743Z,93999.00
2022-11-24T21:11:51.631Z,93994.00
2022-11-24T21:14:21.063Z,94006.00
2022-11-24T21:16:55.011Z,93997.00
2022-11-24T21:19:26.851Z,93989.00
2022-11-24T21:21:54.098Z,93987.00
2022-11-24T21:24:23.486Z,93985.00
2022-11-24T21:26:53.227Z,93979.00
2022-11-24T21:29:23.354Z,93979.00
2022-11-24T21:31:50.688Z,93984.00
2022-11-24T21:34:20.839Z,93984.00
2022-11-24T21:36:50.375Z,93984.00
2022-11-24T21:39:17.647Z,93977.00
2022-11-24T21:41:44.696Z,93977.00
2022-11-24T21:44:13.469Z,93979.00
2022-11-24T21:46:46.119Z,93966.00
2022-11-24T21:49:18.856Z,93980.00
2022-11-24T21:51:48.097Z,93971.00
2022-11-24T21:54:14.971Z,93970.00
2022-11-24T21:56:41.892Z,93979.00
2022-11-24T21:59:15.868Z,93979.00
2022-11-24T22:01:42.884Z,93963.00
2022-11-24T22:04:12.345Z,93974.00
2022-11-24T22:06:41.680Z,93975.00
2022-11-24T22:09:16.404Z,93976.00
2022-11-24T22:11:52.648Z,93968.00
2022-11-24T22:14:19.573Z,93973.00
2022-11-24T22:16:51.197Z,93965.00
2022-11-24T22:19:22.746Z,93968.00
2022-11-24T22:21:50.748Z,93963.00
2022-11-24T22:24:19.035Z,93969.00
2022-11-24T22:26:49.439Z,93968.00
2022-11-24T22:29:16.343Z,93938.00
2022-11-24T22:31:46.317Z,93973.00
2022-11-24T22:34:13.202Z,93977.00
2022-11-24T22:36:40.066Z,93977.00
2022-11-24T22:39:11.851Z,93986.00
2022-11-24T22:41:38.759Z,93981.00
2022-11-24T22:44:06.028Z,93993.00
2022-11-24T22:46:33.172Z,93990.00
2022-11-24T22:49:01.744Z,94002.00
2022-11-24T22:51:34.271Z,93995.00
2022-11-24T22:54:03.840Z,93999.00
2022-11-24T22:56:32.499Z,93990.00
2022-11-24T22:59:01.171Z,93982.00
2022-11-24T23:01:33.533Z,93993.00
2022-11-24T23:04:00.821Z,93982.00
2022-11-24T23:06:30.420Z,93988.00
2022-11-24T23:09:02.147Z,93986.00
2022-11-24T23:11:37.487Z,93985.00
2022-11-24T23:14:16.807Z,93987.00
2022-11-24T23:16:46.391Z,93991.00
2022-11-24T23:19:13.290Z,93994.00
2022-11-24T23:21:42.648Z,93994.00
2022-11-24T23:24:10.941Z,93988.00
2022-11-24T23:26:40.497Z,93982.00
2022-11-24T23:29:10.384Z,93987.00
2022-11-24T23:31:40.412Z,93973.00
2022-11-24T23:34:12.327Z,93973.00
2022-11-24T23:36:41.903Z,93970.00
2022-11-24T23:39:13.356Z,93972.00
2022-11-24T23:41:40.584Z,93982.00
2022-11-24T23:44:08.029Z,93974.00
2022-11-24T23:46:34.917Z,93977.00
2022-11-24T23:49:01.859Z,93982.00
2022-11-24T23:51:35.962Z,93984.00
2022-11-24T23:54:10.394Z,93982.00
2022-11-24T23:56:37.530Z,93983.00
2022-11-24T23:59:05.130Z,93991.00
